Time;durP1;ratioP1;P1;durP2;ratioP2;P2;SDS_P1;SDS_P2;PMS_P1;PMS_P2;Temp;Humidity;BMP_temperature;BMP_pressure;BME280_temperature;BME280_humidity;BME280_pressure;Samples;Min_cycle;Max_cycle;Signal;HPM_P1;HPM_P2
2023/06/07 00:00:15;;;;;;;8.60;5.70;;;;;;;14.32;66.41;100681.67;102545;278;114602;-60
2023/06/07 00:03:13;;;;;;;13.00;5.90;;;;;;;14.24;66.62;100676.48;102599;278;95632;-59
2023/06/07 00:05:55;;;;;;;9.60;5.90;;;;;;;14.16;66.68;100679.30;102523;278;97627;-57
2023/06/07 00:08:43;;;;;;;8.80;6.10;;;;;;;14.09;66.86;100674.02;102481;279;122129;-58
2023/06/07 00:11:22;;;;;;;9.90;5.80;;;;;;;14.02;67.03;100675.42;102496;279;103567;-59
2023/06/07 00:14:08;;;;;;;10.50;6.30;;;;;;;13.99;67.20;100672.48;102512;279;112829;-58
2023/06/07 00:16:53;;;;;;;8.90;5.60;;;;;;;13.94;67.46;100671.34;102533;279;96828;-58
2023/06/07 00:19:35;;;;;;;9.10;5.90;;;;;;;13.88;67.53;100673.13;102578;279;98824;-62
2023/06/07 00:22:21;;;;;;;8.60;6.30;;;;;;;13.82;67.61;100671.23;102605;279;121448;-62
2023/06/07 00:25:08;;;;;;;11.70;5.80;;;;;;;13.78;67.85;100670.38;102534;279;104576;-57
2023/06/07 00:27:44;;;;;;;7.60;5.60;;;;;;;13.69;68.12;100665.42;102523;279;113305;-56
2023/06/07 00:30:27;;;;;;;12.30;6.20;;;;;;;13.65;68.09;100675.17;102664;279;94993;-57
2023/06/07 00:33:17;;;;;;;10.60;6.40;;;;;;;13.61;68.29;100674.07;102597;279;97742;-58
2023/06/07 00:35:58;;;;;;;10.20;6.40;;;;;;;13.59;68.27;100671.30;102555;279;120765;-58
2023/06/07 00:38:50;;;;;;;11.40;6.30;;;;;;;13.54;68.44;100669.74;102572;278;105531;-62
2023/06/07 00:41:36;;;;;;;14.90;6.70;;;;;;;13.52;68.53;100667.02;102555;279;114620;-62
2023/06/07 00:44:19;;;;;;;13.10;7.50;;;;;;;13.46;68.73;100670.48;102547;279;97397;-59
2023/06/07 00:47:01;;;;;;;14.60;7.50;;;;;;;13.40;68.72;100666.50;102567;279;97264;-61
2023/06/07 00:49:47;;;;;;;10.20;6.60;;;;;;;13.39;68.80;100663.31;102554;279;121896;-61
2023/06/07 00:52:25;;;;;;;12.70;6.90;;;;;;;13.41;68.79;100662.58;102512;279;105960;-61
2023/06/07 00:55:09;;;;;;;11.10;7.30;;;;;;;13.41;68.96;100663.84;102530;279;114813;-59
2023/06/07 00:57:50;;;;;;;15.60;7.20;;;;;;;13.35;69.06;100661.79;102394;279;94814;-59
2023/06/07 01:00:25;;;;;;;15.20;7.80;;;;;;;13.29;69.05;100664.17;102430;279;96887;-59
2023/06/07 01:03:07;;;;;;;14.00;6.80;;;;;;;13.24;69.37;100659.23;102525;279;120436;-59
2023/06/07 01:05:50;;;;;;;13.80;7.50;;;;;;;13.20;69.50;100659.62;102554;278;106114;-59
2023/06/07 01:08:35;;;;;;;13.90;7.20;;;;;;;13.14;69.64;100658.30;102575;278;113388;-57
2023/06/07 01:11:24;;;;;;;14.30;7.10;;;;;;;13.12;69.75;100657.95;102424;279;93810;-57
2023/06/07 01:14:04;;;;;;;22.10;7.70;;;;;;;13.08;69.90;100663.08;102624;278;97383;-59
2023/06/07 01:16:48;;;;;;;20.10;8.70;;;;;;;13.06;70.07;100661.52;102582;278;122064;-59
2023/06/07 01:19:25;;;;;;;14.20;7.60;;;;;;;13.04;69.98;100662.66;102545;278;104688;-57
2023/06/07 01:22:07;;;;;;;15.10;7.00;;;;;;;13.01;70.22;100660.13;102569;278;114113;-57
2023/06/07 01:24:53;;;;;;;14.10;7.30;;;;;;;12.96;70.30;100661.81;102572;278;95600;-58
2023/06/07 01:27:32;;;;;;;13.50;7.10;;;;;;;12.89;70.33;100658.27;102545;278;97914;-60
2023/06/07 01:30:14;;;;;;;13.40;7.20;;;;;;;12.82;70.54;100653.95;102518;278;119353;-57
2023/06/07 01:32:55;;;;;;;12.60;7.20;;;;;;;12.78;70.51;100655.34;102563;278;105355;-57
2023/06/07 01:35:34;;;;;;;10.10;6.40;;;;;;;12.75;70.70;100656.61;102508;278;114725;-59
2023/06/07 01:38:13;;;;;;;15.10;8.20;;;;;;;12.70;70.70;100656.86;102528;278;96973;-58
2023/06/07 01:40:55;;;;;;;9.30;6.70;;;;;;;12.67;70.92;100654.80;102559;278;96037;-58
2023/06/07 01:43:38;;;;;;;12.10;6.80;;;;;;;12.65;70.92;100657.58;102507;278;121767;-60
2023/06/07 01:46:28;;;;;;;12.10;7.20;;;;;;;12.63;70.91;100652.67;102527;278;104110;-60
2023/06/07 01:49:11;;;;;;;12.10;7.90;;;;;;;12.61;70.89;100652.21;102551;278;113403;-60
2023/06/07 01:51:55;;;;;;;13.10;7.20;;;;;;;12.57;71.11;100648.84;102574;278;93756;-60
2023/06/07 01:54:39;;;;;;;10.10;7.10;;;;;;;12.55;71.09;100647.52;102585;278;97031;-55
2023/06/07 01:57:31;;;;;;;12.70;7.30;;;;;;;12.51;71.10;100649.71;102556;278;122417;-57
2023/06/07 02:00:47;;;;;;;21.00;7.50;;;;;;;12.47;71.29;100649.05;102603;278;105521;-62
2023/06/07 02:03:35;;;;;;;16.60;8.10;;;;;;;12.44;71.49;100651.81;102575;278;113882;-57
2023/06/07 02:06:16;;;;;;;11.70;7.50;;;;;;;12.42;71.61;100653.34;102555;278;96169;-58
2023/06/07 02:08:59;;;;;;;13.20;8.40;;;;;;;12.41;71.52;100653.30;102579;278;96480;-59
2023/06/07 02:11:50;;;;;;;14.80;8.90;;;;;;;12.39;71.71;100651.86;102612;278;122904;-59
2023/06/07 02:14:26;;;;;;;12.80;7.20;;;;;;;12.35;71.55;100652.82;102565;278;105345;-59
2023/06/07 02:17:07;;;;;;;15.70;8.70;;;;;;;12.32;71.61;100650.66;102514;278;114864;-59
2023/06/07 02:19:55;;;;;;;15.40;7.60;;;;;;;12.29;71.73;100648.72;102491;278;97540;-60
2023/06/07 02:22:36;;;;;;;13.00;8.00;;;;;;;12.25;71.96;100649.60;102529;278;98298;-60
2023/06/07 02:25:11;;;;;;;11.80;6.90;;;;;;;12.25;71.99;100644.98;102520;278;120361;-60
2023/06/07 02:27:55;;;;;;;13.00;7.40;;;;;;;12.25;71.89;100641.90;102569;278;105157;-59
2023/06/07 02:30:38;;;;;;;18.60;9.80;;;;;;;12.24;71.96;100640.77;102524;278;114356;-60
2023/06/07 02:33:13;;;;;;;;;;;;;;;12.23;72.08;100640.04;102540;278;93911;-61
2023/06/07 02:35:50;;;;;;;15.70;8.50;;;;;;;12.19;72.16;100639.42;102599;271;98208;-63
2023/06/07 02:38:31;;;;;;;13.70;7.50;;;;;;;12.20;72.20;100642.56;102588;278;119841;-58
2023/06/07 02:41:11;;;;;;;21.30;9.10;;;;;;;12.20;72.15;100640.39;102514;278;104922;-57
2023/06/07 02:43:53;;;;;;;13.90;7.40;;;;;;;12.24;72.28;100641.85;102506;278;114712;-57
2023/06/07 02:46:37;;;;;;;13.00;7.40;;;;;;;12.28;72.30;100650.77;102564;278;96589;-57
2023/06/07 02:49:20;;;;;;;14.00;8.10;;;;;;;12.33;72.40;100645.67;102585;278;96971;-58
2023/06/07 02:52:03;;;;;;;17.70;8.20;;;;;;;12.41;72.40;100644.71;102561;278;120563;-57
2023/06/07 02:54:55;;;;;;;12.20;7.30;;;;;;;12.50;72.32;100645.86;102635;278;104262;-57
2023/06/07 02:57:41;;;;;;;12.30;8.10;;;;;;;12.55;72.47;100648.48;102575;278;114269;-57
2023/06/07 03:00:19;;;;;;;15.50;8.00;;;;;;;12.63;72.57;100645.63;102609;278;93918;-61
2023/06/07 03:03:07;;;;;;;12.20;7.50;;;;;;;12.68;72.40;100641.34;102585;278;96703;-61
2023/06/07 03:05:48;;;;;;;14.40;8.00;;;;;;;12.73;72.41;100645.14;102543;282;122191;-58
2023/06/07 03:08:26;;;;;;;17.20;7.80;;;;;;;12.78;72.34;100648.71;102495;278;105713;-58
2023/06/07 03:11:03;;;;;;;9.80;7.20;;;;;;;12.86;72.23;100654.52;102550;278;115441;-58
2023/06/07 03:13:42;;;;;;;11.60;7.60;;;;;;;12.94;72.24;100658.42;102538;278;93158;-59
2023/06/07 03:16:22;;;;;;;12.90;6.90;;;;;;;13.03;72.20;100657.64;102535;278;96857;-60
2023/06/07 03:19:02;;;;;;;13.40;8.60;;;;;;;13.15;72.12;100659.34;102521;278;122518;-61
2023/06/07 03:21:44;;;;;;;13.20;7.30;;;;;;;13.23;72.31;100658.30;102555;278;105645;-62
2023/06/07 03:24:21;;;;;;;11.40;6.40;;;;;;;13.36;72.28;100660.24;102574;278;115345;-60
2023/06/07 03:27:04;;;;;;;8.70;6.60;;;;;;;13.65;72.06;100658.70;102538;278;96681;-60
2023/06/07 03:29:41;;;;;;;12.80;6.50;;;;;;;14.49;71.55;100655.05;102515;278;98407;-58
2023/06/07 03:32:25;;;;;;;10.50;6.50;;;;;;;15.71;70.18;100649.66;102568;278;121829;-59
2023/06/07 03:35:03;;;;;;;9.90;6.30;;;;;;;16.94;68.41;100643.58;102464;279;104500;-59
2023/06/07 03:37:48;;;;;;;11.80;5.80;;;;;;;18.02;66.83;100643.48;102594;278;113324;-60
2023/06/07 03:40:26;;;;;;;12.40;7.00;;;;;;;18.99;65.24;100645.79;102593;278;93860;-60
2023/06/07 03:43:14;;;;;;;9.70;6.00;;;;;;;19.83;63.58;100646.68;102613;278;97296;-60
2023/06/07 03:45:58;;;;;;;13.50;6.30;;;;;;;20.62;61.30;100651.58;102646;278;121324;-59
2023/06/07 03:48:40;;;;;;;13.00;5.50;;;;;;;21.22;59.68;100649.31;102583;278;105189;-57
2023/06/07 03:51:24;;;;;;;12.60;6.00;;;;;;;21.89;58.46;100648.50;102549;278;113033;-59
2023/06/07 03:54:09;;;;;;;10.10;5.80;;;;;;;22.69;56.55;100643.83;102549;278;93255;-60
2023/06/07 03:56:50;;;;;;;10.80;4.90;;;;;;;23.35;55.01;100649.84;102568;278;96442;-60
2023/06/07 03:59:30;;;;;;;12.10;5.40;;;;;;;23.99;53.41;100653.29;102567;278;120471;-60
2023/06/07 04:02:11;;;;;;;8.70;5.00;;;;;;;24.60;51.78;100645.19;102406;278;105929;-59
2023/06/07 04:04:52;;;;;;;13.70;5.50;;;;;;;25.36;49.89;100640.61;102382;278;113967;-60
2023/06/07 04:07:38;;;;;;;12.20;5.80;;;;;;;26.00;48.44;100639.10;102517;278;94738;-59
2023/06/07 04:10:27;;;;;;;11.60;5.30;;;;;;;26.47;46.78;100638.93;102605;278;97529;-63
2023/06/07 04:13:10;;;;;;;9.30;5.40;;;;;;;26.88;45.75;100639.83;102605;278;121324;-60
2023/06/07 04:15:48;;;;;;;17.60;6.20;;;;;;;27.51;44.36;100642.98;102524;278;105485;-59
2023/06/07 04:18:37;;;;;;;18.20;7.00;;;;;;;27.98;43.04;100638.13;102563;278;114312;-62
2023/06/07 04:21:19;;;;;;;24.80;6.90;;;;;;;27.79;41.98;100634.48;102561;278;93841;-62
2023/06/07 04:24:00;;;;;;;24.50;7.40;;;;;;;26.83;41.61;100635.13;102528;278;96976;-58
2023/06/07 04:26:37;;;;;;;19.90;6.90;;;;;;;25.49;42.22;100636.48;102517;278;121826;-58
2023/06/07 04:29:14;;;;;;;22.20;6.60;;;;;;;24.69;42.76;100637.95;102540;278;105288;-59
2023/06/07 04:31:52;;;;;;;14.80;6.80;;;;;;;23.82;43.42;100642.25;102499;278;114645;-58
2023/06/07 04:34:40;;;;;;;19.40;6.40;;;;;;;23.60;43.48;100642.53;102592;278;94285;-59
2023/06/07 04:37:20;;;;;;;20.70;6.90;;;;;;;23.29;44.07;100640.04;102531;278;98075;-59
2023/06/07 04:40:05;;;;;;;25.80;6.30;;;;;;;22.71;44.66;100640.05;102574;278;122291;-63
2023/06/07 04:42:46;;;;;;;25.40;7.00;;;;;;;22.35;45.12;100639.48;102640;278;105960;-63
2023/06/07 04:45:31;;;;;;;22.10;5.80;;;;;;;22.65;45.14;100636.35;102526;278;114444;-57
2023/06/07 04:48:11;;;;;;;28.10;6.50;;;;;;;24.24;44.86;100633.88;102581;278;94019;-59
2023/06/07 04:50:46;;;;;;;24.20;7.30;;;;;;;26.02;43.11;100629.89;102539;278;96922;-59
2023/06/07 04:53:26;;;;;;;31.10;7.80;;;;;;;27.17;41.46;100632.06;102557;278;121069;-60
2023/06/07 04:56:11;;;;;;;21.70;6.80;;;;;;;28.30;40.28;100629.49;102518;278;106048;-58
2023/06/07 04:58:52;;;;;;;27.30;7.60;;;;;;;29.20;39.14;100627.98;102533;278;114423;-59
2023/06/07 05:01:33;;;;;;;20.20;6.10;;;;;;;30.09;37.67;100627.63;102543;278;94596;-60
2023/06/07 05:04:13;;;;;;;21.00;6.80;;;;;;;30.83;36.37;100629.88;102560;278;97383;-61
2023/06/07 05:06:49;;;;;;;27.20;6.50;;;;;;;31.62;35.48;100627.65;102542;278;120032;-59
2023/06/07 05:09:33;;;;;;;20.70;5.80;;;;;;;32.22;34.35;100623.60;102558;278;105270;-63
2023/06/07 05:12:12;;;;;;;24.30;6.10;;;;;;;32.68;33.63;100620.81;102556;278;113904;-63
2023/06/07 05:14:49;;;;;;;21.40;5.70;;;;;;;33.23;32.45;100618.86;102534;278;94155;-60
2023/06/07 05:17:29;;;;;;;22.30;5.20;;;;;;;33.61;31.03;100618.98;102578;278;96408;-60
2023/06/07 05:20:11;;;;;;;26.70;5.90;;;;;;;33.52;29.97;100620.74;102606;278;119856;-58
2023/06/07 05:22:57;;;;;;;20.00;5.10;;;;;;;33.67;29.94;100619.32;102554;278;105279;-58
2023/06/07 05:25:50;;;;;;;16.00;5.50;;;;;;;34.28;29.10;100619.04;102616;278;113727;-60
2023/06/07 05:28:44;;;;;;;21.80;5.60;;;;;;;34.61;28.37;100620.47;102643;278;92567;-61
2023/06/07 05:31:27;;;;;;;;;;;;;;;34.95;27.70;100618.45;102611;278;98027;-61
2023/06/07 05:34:08;;;;;;;12.80;4.20;;;;;;;35.30;27.07;100620.42;102532;278;121737;-58
2023/06/07 05:36:47;;;;;;;9.80;4.60;;;;;;;35.49;26.89;100619.23;102543;278;105889;-60
2023/06/07 05:39:29;;;;;;;19.30;5.90;;;;;;;35.64;26.19;100623.36;102559;278;113994;-62
2023/06/07 05:42:07;;;;;;;15.60;4.70;;;;;;;35.85;25.63;100621.31;102510;318;93442;-61
2023/06/07 05:44:48;;;;;;;12.50;3.90;;;;;;;35.90;25.66;100628.71;102565;278;96551;-59
2023/06/07 05:47:26;;;;;;;19.10;5.30;;;;;;;36.30;25.16;100629.73;102515;278;122768;-59
2023/06/07 05:50:10;;;;;;;23.10;5.50;;;;;;;36.49;24.80;100625.98;102319;278;338467;-58
2023/06/07 05:53:01;;;;;;;24.50;6.20;;;;;;;36.72;24.66;100626.98;102473;276;114360;-59
2023/06/07 05:55:40;;;;;;;20.20;5.80;;;;;;;37.21;24.14;100621.78;102503;278;94723;-60
2023/06/07 05:58:18;;;;;;;14.70;5.20;;;;;;;37.03;23.77;100628.29;102547;278;97006;-63
2023/06/07 06:00:55;;;;;;;15.00;5.00;;;;;;;37.52;23.61;100619.72;102576;278;121592;-62
2023/06/07 06:03:36;;;;;;;10.50;5.10;;;;;;;38.00;23.35;100624.68;102622;278;104475;-59
2023/06/07 06:06:25;;;;;;;10.20;5.40;;;;;;;38.28;22.85;100623.14;102515;278;114251;-58
2023/06/07 06:09:06;;;;;;;11.30;5.00;;;;;;;38.44;22.88;100623.50;102551;278;93152;-60
2023/06/07 06:11:46;;;;;;;9.80;5.70;;;;;;;38.89;22.36;100625.83;102610;278;98221;-60
2023/06/07 06:14:35;;;;;;;10.20;4.80;;;;;;;38.53;22.11;100623.71;102583;278;121537;-63
2023/06/07 06:17:15;;;;;;;18.10;4.70;;;;;;;38.80;21.89;100626.63;102589;278;104556;-62
2023/06/07 06:19:52;;;;;;;10.40;4.70;;;;;;;38.55;21.61;100627.29;102535;278;113634;-61
2023/06/07 06:22:33;;;;;;;12.50;4.70;;;;;;;38.81;21.51;100628.58;102541;278;93332;-61
2023/06/07 06:25:13;;;;;;;14.40;4.40;;;;;;;39.20;21.33;100629.41;102609;278;95333;-63
2023/06/07 06:27:57;;;;;;;8.90;4.70;;;;;;;39.50;21.35;100629.23;102535;278;121543;-67
2023/06/07 06:30:38;;;;;;;7.40;4.20;;;;;;;39.73;20.65;100632.71;102433;278;105776;-59
2023/06/07 06:33:15;;;;;;;8.80;4.10;;;;;;;39.71;20.30;100632.02;102432;278;114739;-58
2023/06/07 06:35:57;;;;;;;11.60;4.80;;;;;;;39.72;20.13;100635.27;102537;278;94819;-60
2023/06/07 06:38:38;;;;;;;7.10;4.00;;;;;;;39.62;20.22;100630.59;102541;271;96263;-60
2023/06/07 06:41:16;;;;;;;9.60;4.70;;;;;;;39.31;19.90;100628.33;102507;278;120213;-60
2023/06/07 06:43:55;;;;;;;6.60;4.00;;;;;;;39.46;20.23;100627.55;102530;278;105207;-62
2023/06/07 06:46:32;;;;;;;10.00;4.10;;;;;;;39.80;20.10;100626.45;102516;278;115107;-63
2023/06/07 06:49:12;;;;;;;13.30;4.30;;;;;;;39.94;19.73;100623.83;102519;278;94375;-60
2023/06/07 06:51:54;;;;;;;11.90;4.80;;;;;;;39.96;19.43;100627.09;102532;278;97443;-60
2023/06/07 06:54:32;;;;;;;16.10;4.30;;;;;;;40.27;19.16;100626.18;102572;278;120516;-61
2023/06/07 06:57:08;;;;;;;11.70;4.20;;;;;;;40.21;19.03;100624.71;102615;278;104842;-62
2023/06/07 06:59:53;;;;;;;14.40;4.70;;;;;;;40.45;18.81;100629.59;102569;278;114185;-59
2023/06/07 07:02:35;;;;;;;18.40;4.70;;;;;;;40.31;18.55;100625.02;102549;278;93463;-60
2023/06/07 07:05:15;;;;;;;16.40;4.70;;;;;;;40.39;18.79;100626.19;102512;278;99196;-58
2023/06/07 07:07:58;;;;;;;7.80;3.50;;;;;;;40.70;18.55;100624.02;102473;278;123687;-57
2023/06/07 07:10:43;;;;;;;8.10;3.10;;;;;;;41.00;18.42;100624.20;102607;278;103623;-61
2023/06/07 07:13:29;;;;;;;10.80;3.80;;;;;;;41.05;17.84;100620.52;102553;278;114457;-58
2023/06/07 07:16:19;;;;;;;12.20;3.90;;;;;;;41.04;17.82;100621.49;102596;278;92395;-58
2023/06/07 07:19:03;;;;;;;9.70;3.20;;;;;;;41.22;17.59;100617.71;102565;278;98877;-57
2023/06/07 07:21:43;;;;;;;11.20;3.60;;;;;;;41.16;17.80;100622.74;102543;278;122364;-57
2023/06/07 07:24:25;;;;;;;13.30;3.40;;;;;;;41.35;17.23;100628.29;102410;279;107389;-58
2023/06/07 07:27:07;;;;;;;8.20;3.30;;;;;;;40.69;17.27;100629.91;102507;278;114613;-58
2023/06/07 07:29:44;;;;;;;5.30;2.80;;;;;;;40.63;17.42;100624.89;102547;278;93068;-63
2023/06/07 07:32:24;;;;;;;6.30;3.10;;;;;;;40.36;17.16;100624.59;102592;278;96280;-63
2023/06/07 07:35:14;;;;;;;9.10;2.80;;;;;;;40.45;17.10;100628.61;102523;278;121382;-58
2023/06/07 07:37:54;;;;;;;10.00;3.70;;;;;;;40.50;17.44;100626.42;102522;278;105556;-57
2023/06/07 07:40:36;;;;;;;6.30;2.90;;;;;;;40.74;17.16;100623.81;102536;278;114497;-58
2023/06/07 07:43:15;;;;;;;6.10;3.20;;;;;;;40.49;17.15;100630.69;102538;278;94779;-63
2023/06/07 07:45:58;;;;;;;6.70;3.00;;;;;;;40.30;17.18;100627.11;102569;278;97971;-62
2023/06/07 07:48:37;;;;;;;9.10;3.20;;;;;;;40.10;17.37;100625.29;102584;278;121670;-60
2023/06/07 07:51:14;;;;;;;8.10;3.00;;;;;;;39.58;17.51;100623.89;102578;278;105369;-60
2023/06/07 07:53:54;;;;;;;12.70;3.90;;;;;;;39.54;17.66;100622.02;102550;278;113187;-61
2023/06/07 07:56:31;;;;;;;24.50;6.00;;;;;;;40.00;17.69;100619.23;102559;278;93672;-60
2023/06/07 07:59:12;;;;;;;8.20;3.40;;;;;;;39.90;17.72;100618.27;102613;278;97246;-61
2023/06/07 08:01:52;;;;;;;5.90;3.20;;;;;;;39.80;17.77;100619.40;102586;278;121363;-59
2023/06/07 08:04:31;;;;;;;8.40;2.90;;;;;;;39.57;17.57;100621.11;102632;278;104249;-63
2023/06/07 08:07:15;;;;;;;8.50;3.30;;;;;;;40.08;17.89;100619.67;102565;267;114444;-62
2023/06/07 08:09:52;;;;;;;5.90;3.60;;;;;;;40.64;17.65;100623.70;102581;279;93406;-60
2023/06/07 08:12:26;;;;;;;9.80;4.00;;;;;;;40.65;16.96;100622.49;102544;279;99321;-58
2023/06/07 08:15:07;;;;;;;5.70;2.90;;;;;;;39.97;16.93;100625.16;102536;279;122048;-60
2023/06/07 08:17:42;;;;;;;5.60;2.80;;;;;;;39.48;17.13;100623.70;102528;279;105695;-60
2023/06/07 08:20:23;;;;;;;4.00;3.10;;;;;;;39.48;17.57;100621.38;102512;279;114070;-60
2023/06/07 08:23:07;;;;;;;6.20;3.20;;;;;;;39.77;17.75;100619.36;102506;279;94601;-62
2023/06/07 08:25:48;;;;;;;10.90;3.50;;;;;;;39.93;17.11;100622.02;102515;279;97408;-65
2023/06/07 08:28:29;;;;;;;8.80;3.70;;;;;;;39.70;17.34;100615.36;102524;279;121081;-57
2023/06/07 08:31:04;;;;;;;10.70;4.20;;;;;;;39.86;17.45;100616.90;102517;279;105288;-58
2023/06/07 08:33:49;;;;;;;8.90;3.90;;;;;;;39.72;17.21;100618.30;102504;279;114418;-58
2023/06/07 08:36:35;;;;;;;8.50;3.90;;;;;;;39.58;17.03;100609.50;102512;279;93968;-58
2023/06/07 08:39:19;;;;;;;7.30;3.50;;;;;;;39.33;17.31;100606.88;102556;279;96739;-62
2023/06/07 08:42:01;;;;;;;7.30;3.10;;;;;;;39.57;17.48;100610.36;102511;279;121058;-63
2023/06/07 08:44:44;;;;;;;8.70;3.20;;;;;;;39.59;17.49;100609.67;102588;279;104855;-62
2023/06/07 08:47:29;;;;;;;16.20;3.40;;;;;;;39.45;17.62;100609.60;102507;279;115454;-62
2023/06/07 08:50:12;;;;;;;5.80;3.00;;;;;;;38.89;17.33;100609.52;102586;279;94748;-63
2023/06/07 08:52:53;;;;;;;;;;;;;;;38.75;17.67;100604.56;102583;279;96805;-60
2023/06/07 08:55:30;;;;;;;5.10;3.00;;;;;;;38.24;17.68;100603.71;102591;279;122108;-58
2023/06/07 08:58:15;;;;;;;9.60;3.60;;;;;;;37.60;17.56;100604.65;102431;267;105289;-59
2023/06/07 09:00:53;;;;;;;5.50;2.80;;;;;;;36.85;17.84;100609.19;102561;279;113976;-57
2023/06/07 09:03:38;;;;;;;5.10;3.00;;;;;;;36.21;17.84;100608.41;102491;279;94917;-58
2023/06/07 09:06:22;;;;;;;9.20;3.60;;;;;;;35.65;18.40;100605.08;102596;279;97753;-68
2023/06/07 09:09:05;;;;;;;7.00;2.90;;;;;;;35.24;18.36;100607.14;102515;274;122047;-65
2023/06/07 09:11:52;;;;;;;3.90;2.50;;;;;;;34.31;18.55;100614.09;102370;278;105433;-66
2023/06/07 09:14:35;;;;;;;4.70;3.20;;;;;;;33.67;18.92;100614.27;102574;278;114238;-68
2023/06/07 09:17:17;;;;;;;6.50;3.10;;;;;;;33.46;19.43;100614.14;102504;278;94909;-64
2023/06/07 09:19:52;;;;;;;6.00;3.20;;;;;;;33.05;19.57;100615.59;102521;275;98456;-63
2023/06/07 09:22:35;;;;;;;4.40;3.00;;;;;;;32.80;19.77;100615.96;102567;278;122011;-67
2023/06/07 09:25:31;;;;;;;4.50;3.20;;;;;;;32.96;20.19;100612.98;102581;278;105948;-67
2023/06/07 09:28:15;;;;;;;4.60;3.20;;;;;;;32.99;20.23;100607.44;102576;278;114377;-68
2023/06/07 09:30:59;;;;;;;7.90;3.10;;;;;;;32.54;20.25;100618.31;102526;278;93841;-67
2023/06/07 09:33:39;;;;;;;3.10;2.80;;;;;;;32.26;20.61;100618.90;102505;278;97066;-68
2023/06/07 09:36:19;;;;;;;4.50;3.00;;;;;;;32.00;20.74;100621.20;102574;278;119911;-64
2023/06/07 09:39:16;;;;;;;7.00;2.90;;;;;;;31.89;20.98;100616.79;102569;278;105088;-67
2023/06/07 09:41:57;;;;;;;4.20;3.10;;;;;;;31.79;21.19;100615.91;102517;278;114030;-66
2023/06/07 09:44:35;;;;;;;5.20;2.80;;;;;;;31.92;21.37;100612.95;102619;278;93375;-63
2023/06/07 09:47:26;;;;;;;3.70;3.10;;;;;;;31.87;21.81;100616.88;102586;278;97958;-63
2023/06/07 09:50:18;;;;;;;6.30;3.10;;;;;;;31.67;21.46;100615.39;102512;278;120079;-63
2023/06/07 09:53:12;;;;;;;9.10;3.50;;;;;;;31.60;22.03;100601.95;102613;278;105839;-64
2023/06/07 09:55:55;;;;;;;6.00;2.90;;;;;;;31.70;22.52;100608.30;102571;267;112307;-63
2023/06/07 09:58:41;;;;;;;5.10;3.20;;;;;;;31.81;22.59;100606.69;102590;278;94757;-65
2023/06/07 10:01:38;;;;;;;9.20;4.00;;;;;;;31.97;22.76;100601.09;102560;278;96579;-64
2023/06/07 10:04:15;;;;;;;5.70;3.40;;;;;;;32.13;22.72;100597.94;102541;278;121110;-62
2023/06/07 10:07:04;;;;;;;4.90;3.10;;;;;;;32.29;22.44;100591.23;102374;278;104574;-62
2023/06/07 10:09:45;;;;;;;11.90;3.40;;;;;;;32.25;22.73;100592.02;102492;278;113504;-62
2023/06/07 10:12:30;;;;;;;4.60;3.10;;;;;;;31.93;22.85;100597.60;102503;278;94413;-63
2023/06/07 10:15:16;;;;;;;4.20;2.90;;;;;;;31.87;23.10;100593.70;102559;278;97380;-65
2023/06/07 10:18:03;;;;;;;5.60;3.40;;;;;;;31.89;23.29;100587.98;102569;278;121154;-62
2023/06/07 10:20:52;;;;;;;6.90;2.90;;;;;;;31.63;23.17;100595.03;102537;278;105163;-64
2023/06/07 10:23:46;;;;;;;4.90;3.30;;;;;;;30.94;23.50;100592.27;102592;278;113706;-66
2023/06/07 10:26:46;;;;;;;5.60;3.30;;;;;;;30.29;23.82;100583.76;102592;278;94423;-66
2023/06/07 10:29:42;;;;;;;6.30;3.40;;;;;;;30.46;24.24;100590.89;102577;278;97541;-63
2023/06/07 10:32:29;;;;;;;5.60;3.10;;;;;;;30.41;24.04;100581.41;102560;278;121822;-62
2023/06/07 10:35:16;;;;;;;9.00;3.20;;;;;;;30.62;23.83;100579.64;102585;278;105692;-65
2023/06/07 10:38:03;;;;;;;10.60;3.30;;;;;;;30.77;23.58;100573.05;102542;278;114055;-65
2023/06/07 10:40:47;;;;;;;4.90;3.10;;;;;;;30.48;23.88;100576.77;102537;278;94641;-63
2023/06/07 10:43:46;;;;;;;5.50;3.00;;;;;;;30.43;24.16;100584.71;102583;278;97185;-66
2023/06/07 10:46:39;;;;;;;4.50;3.10;;;;;;;30.65;24.19;100579.35;102575;278;122018;-65
2023/06/07 10:49:44;;;;;;;4.90;3.10;;;;;;;30.80;23.86;100572.64;102497;278;104515;-63
2023/06/07 10:52:26;;;;;;;3.40;2.80;;;;;;;31.14;23.63;100571.60;102548;278;114050;-61
2023/06/07 10:55:27;;;;;;;5.80;3.30;;;;;;;31.24;23.74;100573.97;102584;278;93398;-62
2023/06/07 10:58:36;;;;;;;3.70;3.30;;;;;;;31.29;23.45;100578.07;102620;278;96497;-62
2023/06/07 11:05:03;;;;;;;7.40;3.00;;;;;;;31.11;23.50;100575.59;100520;295;631806;-64
2023/06/07 11:07:47;;;;;;;5.40;2.90;;;;;;;31.08;23.45;100571.25;101764;288;94583;-63
2023/06/07 11:10:44;;;;;;;5.70;2.90;;;;;;;30.96;23.32;100566.85;102882;276;97585;-63
2023/06/07 11:13:23;;;;;;;5.50;3.00;;;;;;;30.93;23.59;100565.45;102721;277;117309;-63
2023/06/07 11:16:32;;;;;;;5.90;3.00;;;;;;;31.11;23.56;100572.64;102819;276;104480;-65
2023/06/07 11:19:19;;;;;;;4.00;3.30;;;;;;;31.28;23.60;100561.41;102639;274;114986;-63
2023/06/07 11:22:09;;;;;;;5.70;3.00;;;;;;;31.38;23.20;100558.06;102832;274;97015;-63
2023/06/07 11:24:50;;;;;;;5.90;2.60;;;;;;;31.43;23.58;100560.80;103051;274;95933;-65
2023/06/07 11:27:41;;;;;;;6.50;2.80;;;;;;;31.31;23.45;100560.22;102784;275;116769;-66
2023/06/07 11:30:19;;;;;;;5.20;2.80;;;;;;;31.31;23.47;100557.55;102991;274;105755;-65
2023/06/07 11:33:03;;;;;;;4.20;2.50;;;;;;;31.29;23.63;100559.05;102936;274;113014;-65
2023/06/07 11:35:47;;;;;;;6.10;2.70;;;;;;;31.19;23.80;100557.59;102915;274;93292;-65
2023/06/07 11:38:28;;;;;;;5.90;2.70;;;;;;;31.23;23.98;100556.44;102873;274;98370;-67
2023/06/07 11:41:09;;;;;;;5.60;3.10;;;;;;;31.26;23.92;100552.70;102942;274;118523;-65
2023/06/07 11:43:46;;;;;;;4.20;2.90;;;;;;;31.25;23.86;100549.15;103002;274;105409;-63
2023/06/07 11:46:22;;;;;;;4.10;2.70;;;;;;;30.99;23.71;100555.36;103039;274;113730;-62
2023/06/07 11:48:57;;;;;;;5.30;2.80;;;;;;;30.69;23.91;100549.80;102995;274;93041;-64
2023/06/07 11:51:48;;;;;;;7.00;3.40;;;;;;;30.58;24.23;100552.73;102939;274;99063;-66
2023/06/07 11:54:26;;;;;;;4.70;3.00;;;;;;;30.50;24.11;100554.60;102814;275;117952;-67
2023/06/07 11:57:21;;;;;;;5.70;3.30;;;;;;;30.18;24.21;100552.63;103057;274;103109;-65
2023/06/07 12:00:08;;;;;;;5.10;2.90;;;;;;;29.66;24.40;100549.18;102854;263;115111;-67
2023/06/07 12:02:47;;;;;;;5.60;2.70;;;;;;;29.37;24.43;100549.19;102980;274;93575;-65
2023/06/07 12:05:30;;;;;;;5.90;3.30;;;;;;;29.37;24.50;100546.36;102934;274;96409;-67
2023/06/07 12:08:10;;;;;;;4.80;2.90;;;;;;;29.53;24.62;100537.89;102990;274;119040;-65
2023/06/07 12:10:55;;;;;;;6.20;3.10;;;;;;;29.85;24.77;100535.02;102924;274;105888;-63
2023/06/07 12:13:37;;;;;;;8.10;3.00;;;;;;;30.06;24.81;100532.52;102920;274;113887;-63
2023/06/07 12:16:11;;;;;;;5.50;3.00;;;;;;;29.99;24.76;100531.61;102919;275;93751;-62
2023/06/07 12:18:52;;;;;;;7.20;2.80;;;;;;;30.04;24.78;100523.49;102917;275;96870;-66
2023/06/07 12:21:36;;;;;;;4.80;3.00;;;;;;;30.09;24.77;100522.07;102833;276;118228;-67
2023/06/07 12:24:19;;;;;;;5.30;2.80;;;;;;;30.08;24.79;100525.35;102931;275;105470;-65
2023/06/07 12:27:12;;;;;;;4.80;2.70;;;;;;;30.04;24.70;100523.54;102924;275;113774;-64
2023/06/07 12:29:55;;;;;;;6.10;3.20;;;;;;;29.90;24.86;100512.80;102922;275;94339;-64
2023/06/07 12:32:31;;;;;;;4.80;3.00;;;;;;;29.75;24.89;100510.16;102919;275;97323;-65